Terminal Aerodrome Forecast
Issued by NWS

Home | Current Version | Previous Version | Text Only | Print | Product List | Glossary Off
Versions: 1 2 3 4 5 6 7 8 9 10 11 12 13 14 15 16 17 18 19

561
FTUS42 KMHX 212016 AAA
TAFPGV
TAF AMD
KPGV 212016Z 2120/2218 35005KT P6SM VCSH SCT050
     FM220000 VRB03KT P6SM FEW080
     FM220700 00000KT 3SM BR SKC
     FM221300 VRB04KT P6SM SCT050
      AMD LTD TO CLD VIS AND WIND=

USA.gov is the U.S. government's official web portal to all federal, state and local government web resources and services.